sensor_id;sensor_type;location;lat;lon;timestamp;P1;durP1;ratioP1;P2;durP2;ratioP2
63201;SDS011;49296;48.188;11.566;2023-09-18T00:01:51;6.43;;;4.93;;
63201;SDS011;49296;48.188;11.566;2023-09-18T00:04:17;6.80;;;5.07;;
63201;SDS011;49296;48.188;11.566;2023-09-18T00:06:44;7.95;;;4.95;;
63201;SDS011;49296;48.188;11.566;2023-09-18T00:09:10;6.93;;;4.70;;
63201;SDS011;49296;48.188;11.566;2023-09-18T00:11:38;7.40;;;5.55;;
63201;SDS011;49296;48.188;11.566;2023-09-18T00:14:07;6.13;;;4.63;;
63201;SDS011;49296;48.188;11.566;2023-09-18T00:16:34;6.40;;;4.60;;
63201;SDS011;49296;48.188;11.566;2023-09-18T00:19:01;7.50;;;5.20;;
63201;SDS011;49296;48.188;11.566;2023-09-18T00:21:28;7.40;;;5.03;;
63201;SDS011;49296;48.188;11.566;2023-09-18T00:23:55;6.40;;;4.57;;
63201;SDS011;49296;48.188;11.566;2023-09-18T00:26:23;6.43;;;4.32;;
63201;SDS011;49296;48.188;11.566;2023-09-18T00:28:49;6.60;;;4.35;;
63201;SDS011;49296;48.188;11.566;2023-09-18T00:31:18;5.97;;;4.45;;
63201;SDS011;49296;48.188;11.566;2023-09-18T00:33:45;7.45;;;4.55;;
63201;SDS011;49296;48.188;11.566;2023-09-18T00:36:11;8.02;;;4.78;;
63201;SDS011;49296;48.188;11.566;2023-09-18T00:38:38;7.15;;;4.30;;
63201;SDS011;49296;48.188;11.566;2023-09-18T00:41:05;7.90;;;4.40;;
63201;SDS011;49296;48.188;11.566;2023-09-18T00:43:32;7.40;;;4.43;;
63201;SDS011;49296;48.188;11.566;2023-09-18T00:45:59;5.75;;;4.30;;
63201;SDS011;49296;48.188;11.566;2023-09-18T00:48:28;6.63;;;4.43;;
63201;SDS011;49296;48.188;11.566;2023-09-18T00:50:55;7.20;;;4.60;;
63201;SDS011;49296;48.188;11.566;2023-09-18T00:53:23;6.50;;;4.32;;
63201;SDS011;49296;48.188;11.566;2023-09-18T00:55:52;6.47;;;4.50;;
63201;SDS011;49296;48.188;11.566;2023-09-18T00:58:21;6.65;;;4.35;;
63201;SDS011;49296;48.188;11.566;2023-09-18T01:00:48;5.80;;;4.35;;
63201;SDS011;49296;48.188;11.566;2023-09-18T01:03:16;9.05;;;4.60;;
63201;SDS011;49296;48.188;11.566;2023-09-18T01:05:45;6.47;;;4.40;;
63201;SDS011;49296;48.188;11.566;2023-09-18T01:08:11;5.40;;;3.97;;
63201;SDS011;49296;48.188;11.566;2023-09-18T01:10:40;5.65;;;4.28;;
63201;SDS011;49296;48.188;11.566;2023-09-18T01:13:15;6.57;;;4.82;;
63201;SDS011;49296;48.188;11.566;2023-09-18T01:15:48;6.22;;;4.05;;
63201;SDS011;49296;48.188;11.566;2023-09-18T01:18:20;7.90;;;4.43;;
63201;SDS011;49296;48.188;11.566;2023-09-18T01:20:48;5.82;;;3.95;;
63201;SDS011;49296;48.188;11.566;2023-09-18T01:23:16;6.10;;;3.90;;
63201;SDS011;49296;48.188;11.566;2023-09-18T01:25:43;5.90;;;4.30;;
63201;SDS011;49296;48.188;11.566;2023-09-18T01:28:09;6.22;;;4.28;;
63201;SDS011;49296;48.188;11.566;2023-09-18T01:30:36;6.18;;;3.80;;
63201;SDS011;49296;48.188;11.566;2023-09-18T01:33:03;7.32;;;4.35;;
63201;SDS011;49296;48.188;11.566;2023-09-18T01:35:30;6.47;;;4.57;;
63201;SDS011;49296;48.188;11.566;2023-09-18T01:37:59;6.37;;;4.30;;
63201;SDS011;49296;48.188;11.566;2023-09-18T01:40:28;5.68;;;3.75;;
63201;SDS011;49296;48.188;11.566;2023-09-18T01:42:57;6.00;;;4.35;;
63201;SDS011;49296;48.188;11.566;2023-09-18T01:45:24;5.85;;;4.13;;
63201;SDS011;49296;48.188;11.566;2023-09-18T01:47:51;6.25;;;4.05;;
63201;SDS011;49296;48.188;11.566;2023-09-18T01:50:17;6.10;;;3.88;;
63201;SDS011;49296;48.188;11.566;2023-09-18T01:52:44;6.03;;;3.95;;
63201;SDS011;49296;48.188;11.566;2023-09-18T01:55:11;7.63;;;4.20;;
63201;SDS011;49296;48.188;11.566;2023-09-18T01:57:39;5.35;;;3.95;;
63201;SDS011;49296;48.188;11.566;2023-09-18T02:00:08;5.65;;;3.72;;
63201;SDS011;49296;48.188;11.566;2023-09-18T02:02:35;7.18;;;3.45;;
63201;SDS011;49296;48.188;11.566;2023-09-18T02:05:02;5.78;;;4.10;;
63201;SDS011;49296;48.188;11.566;2023-09-18T02:07:29;5.88;;;3.47;;
63201;SDS011;49296;48.188;11.566;2023-09-18T02:09:57;5.80;;;3.90;;
63201;SDS011;49296;48.188;11.566;2023-09-18T02:12:23;6.47;;;4.15;;
63201;SDS011;49296;48.188;11.566;2023-09-18T02:14:51;5.82;;;4.35;;
63201;SDS011;49296;48.188;11.566;2023-09-18T02:17:18;7.30;;;4.75;;
63201;SDS011;49296;48.188;11.566;2023-09-18T02:19:45;7.60;;;3.90;;
63201;SDS011;49296;48.188;11.566;2023-09-18T02:22:12;5.85;;;3.90;;
63201;SDS011;49296;48.188;11.566;2023-09-18T02:24:39;6.90;;;3.85;;
63201;SDS011;49296;48.188;11.566;2023-09-18T02:27:05;6.38;;;3.88;;
63201;SDS011;49296;48.188;11.566;2023-09-18T02:29:32;8.57;;;4.70;;
63201;SDS011;49296;48.188;11.566;2023-09-18T02:32:00;7.20;;;4.28;;
63201;SDS011;49296;48.188;11.566;2023-09-18T02:34:27;6.07;;;4.10;;
63201;SDS011;49296;48.188;11.566;2023-09-18T02:36:54;6.93;;;3.97;;
63201;SDS011;49296;48.188;11.566;2023-09-18T02:39:20;7.15;;;3.75;;
63201;SDS011;49296;48.188;11.566;2023-09-18T02:41:47;6.70;;;3.55;;
63201;SDS011;49296;48.188;11.566;2023-09-18T02:44:13;5.55;;;3.70;;
63201;SDS011;49296;48.188;11.566;2023-09-18T02:46:41;7.03;;;3.70;;
63201;SDS011;49296;48.188;11.566;2023-09-18T02:49:09;5.28;;;3.25;;
63201;SDS011;49296;48.188;11.566;2023-09-18T02:51:36;6.10;;;3.55;;
63201;SDS011;49296;48.188;11.566;2023-09-18T02:54:03;8.30;;;3.88;;
63201;SDS011;49296;48.188;11.566;2023-09-18T02:56:29;6.05;;;3.42;;
63201;SDS011;49296;48.188;11.566;2023-09-18T02:58:56;7.15;;;3.90;;
63201;SDS011;49296;48.188;11.566;2023-09-18T03:01:23;5.97;;;4.03;;
63201;SDS011;49296;48.188;11.566;2023-09-18T03:03:52;5.97;;;3.72;;
63201;SDS011;49296;48.188;11.566;2023-09-18T03:06:20;7.53;;;3.72;;
63201;SDS011;49296;48.188;11.566;2023-09-18T03:08:46;6.78;;;3.90;;
63201;SDS011;49296;48.188;11.566;2023-09-18T03:11:13;5.63;;;3.95;;
63201;SDS011;49296;48.188;11.566;2023-09-18T03:13:44;9.32;;;4.05;;
63201;SDS011;49296;48.188;11.566;2023-09-18T03:16:12;6.93;;;3.55;;
63201;SDS011;49296;48.188;11.566;2023-09-18T03:18:39;5.20;;;3.72;;
63201;SDS011;49296;48.188;11.566;2023-09-18T03:21:06;7.28;;;3.83;;
63201;SDS011;49296;48.188;11.566;2023-09-18T03:23:34;6.75;;;3.65;;
63201;SDS011;49296;48.188;11.566;2023-09-18T03:26:01;5.70;;;3.70;;
63201;SDS011;49296;48.188;11.566;2023-09-18T03:28:28;6.90;;;4.30;;
63201;SDS011;49296;48.188;11.566;2023-09-18T03:30:55;7.00;;;3.80;;
63201;SDS011;49296;48.188;11.566;2023-09-18T03:33:22;8.50;;;4.13;;
63201;SDS011;49296;48.188;11.566;2023-09-18T03:35:49;7.72;;;4.03;;
63201;SDS011;49296;48.188;11.566;2023-09-18T03:38:16;9.25;;;4.30;;
63201;SDS011;49296;48.188;11.566;2023-09-18T03:40:44;7.22;;;4.15;;
63201;SDS011;49296;48.188;11.566;2023-09-18T03:43:11;6.20;;;3.65;;
63201;SDS011;49296;48.188;11.566;2023-09-18T03:45:38;7.40;;;3.95;;
63201;SDS011;49296;48.188;11.566;2023-09-18T03:48:05;6.55;;;3.55;;
63201;SDS011;49296;48.188;11.566;2023-09-18T03:50:32;6.43;;;4.20;;
63201;SDS011;49296;48.188;11.566;2023-09-18T03:52:59;6.78;;;4.03;;
63201;SDS011;49296;48.188;11.566;2023-09-18T03:55:25;7.63;;;4.10;;
63201;SDS011;49296;48.188;11.566;2023-09-18T03:57:53;7.40;;;3.83;;
63201;SDS011;49296;48.188;11.566;2023-09-18T04:00:21;7.25;;;4.47;;
63201;SDS011;49296;48.188;11.566;2023-09-18T04:02:47;7.10;;;4.22;;
63201;SDS011;49296;48.188;11.566;2023-09-18T04:05:14;6.80;;;3.85;;
63201;SDS011;49296;48.188;11.566;2023-09-18T04:07:40;6.60;;;3.80;;
63201;SDS011;49296;48.188;11.566;2023-09-18T04:10:11;7.15;;;4.05;;
63201;SDS011;49296;48.188;11.566;2023-09-18T04:12:43;8.13;;;4.55;;
63201;SDS011;49296;48.188;11.566;2023-09-18T04:15:12;7.60;;;4.00;;
63201;SDS011;49296;48.188;11.566;2023-09-18T04:17:40;7.13;;;4.57;;
63201;SDS011;49296;48.188;11.566;2023-09-18T04:20:07;7.50;;;4.60;;
63201;SDS011;49296;48.188;11.566;2023-09-18T04:22:34;6.43;;;4.18;;
63201;SDS011;49296;48.188;11.566;2023-09-18T04:25:01;5.93;;;4.30;;
63201;SDS011;49296;48.188;11.566;2023-09-18T04:27:30;5.80;;;4.30;;
63201;SDS011;49296;48.188;11.566;2023-09-18T04:29:56;7.50;;;4.30;;
63201;SDS011;49296;48.188;11.566;2023-09-18T04:32:25;8.20;;;4.78;;
63201;SDS011;49296;48.188;11.566;2023-09-18T04:34:54;8.05;;;4.85;;
63201;SDS011;49296;48.188;11.566;2023-09-18T04:37:21;8.07;;;4.10;;
63201;SDS011;49296;48.188;11.566;2023-09-18T04:39:47;6.18;;;4.20;;
63201;SDS011;49296;48.188;11.566;2023-09-18T04:42:14;6.63;;;4.15;;
63201;SDS011;49296;48.188;11.566;2023-09-18T04:44:41;7.95;;;4.93;;
63201;SDS011;49296;48.188;11.566;2023-09-18T04:47:07;8.00;;;4.80;;
63201;SDS011;49296;48.188;11.566;2023-09-18T04:49:35;7.45;;;4.75;;
63201;SDS011;49296;48.188;11.566;2023-09-18T04:52:02;8.35;;;4.47;;
63201;SDS011;49296;48.188;11.566;2023-09-18T04:54:30;7.88;;;4.72;;
63201;SDS011;49296;48.188;11.566;2023-09-18T04:56:56;6.72;;;4.35;;
63201;SDS011;49296;48.188;11.566;2023-09-18T04:59:23;9.98;;;4.68;;
63201;SDS011;49296;48.188;11.566;2023-09-18T05:01:50;7.53;;;3.60;;
63201;SDS011;49296;48.188;11.566;2023-09-18T05:04:16;7.45;;;4.05;;
63201;SDS011;49296;48.188;11.566;2023-09-18T05:06:44;6.63;;;4.07;;
63201;SDS011;49296;48.188;11.566;2023-09-18T05:09:11;7.05;;;3.88;;
63201;SDS011;49296;48.188;11.566;2023-09-18T05:11:38;7.65;;;3.90;;
63201;SDS011;49296;48.188;11.566;2023-09-18T05:14:06;8.63;;;4.50;;
63201;SDS011;49296;48.188;11.566;2023-09-18T05:16:33;7.03;;;4.15;;
63201;SDS011;49296;48.188;11.566;2023-09-18T05:19:00;8.25;;;4.30;;
63201;SDS011;49296;48.188;11.566;2023-09-18T05:21:27;7.78;;;4.15;;
63201;SDS011;49296;48.188;11.566;2023-09-18T05:23:56;7.30;;;4.15;;
63201;SDS011;49296;48.188;11.566;2023-09-18T05:26:23;10.40;;;5.03;;
63201;SDS011;49296;48.188;11.566;2023-09-18T05:28:51;11.63;;;4.80;;
63201;SDS011;49296;48.188;11.566;2023-09-18T05:31:20;10.52;;;5.15;;
63201;SDS011;49296;48.188;11.566;2023-09-18T05:33:46;14.52;;;5.20;;
63201;SDS011;49296;48.188;11.566;2023-09-18T05:36:13;13.68;;;5.20;;
63201;SDS011;49296;48.188;11.566;2023-09-18T05:38:40;12.25;;;5.57;;
63201;SDS011;49296;48.188;11.566;2023-09-18T05:41:07;10.70;;;5.03;;
63201;SDS011;49296;48.188;11.566;2023-09-18T05:43:34;11.93;;;5.47;;
63201;SDS011;49296;48.188;11.566;2023-09-18T05:46:01;11.57;;;4.95;;
63201;SDS011;49296;48.188;11.566;2023-09-18T05:48:28;9.60;;;5.63;;
63201;SDS011;49296;48.188;11.566;2023-09-18T05:50:56;9.75;;;5.05;;
63201;SDS011;49296;48.188;11.566;2023-09-18T05:53:23;11.77;;;5.93;;
63201;SDS011;49296;48.188;11.566;2023-09-18T05:55:50;10.40;;;5.70;;
63201;SDS011;49296;48.188;11.566;2023-09-18T05:58:18;8.85;;;4.70;;
63201;SDS011;49296;48.188;11.566;2023-09-18T06:00:47;12.07;;;5.47;;
63201;SDS011;49296;48.188;11.566;2023-09-18T06:03:14;10.57;;;4.90;;
63201;SDS011;49296;48.188;11.566;2023-09-18T06:05:44;7.57;;;4.18;;
63201;SDS011;49296;48.188;11.566;2023-09-18T06:08:10;9.38;;;5.22;;
63201;SDS011;49296;48.188;11.566;2023-09-18T06:10:37;10.75;;;5.10;;
63201;SDS011;49296;48.188;11.566;2023-09-18T06:13:04;8.55;;;5.07;;
63201;SDS011;49296;48.188;11.566;2023-09-18T06:15:32;6.78;;;4.13;;
63201;SDS011;49296;48.188;11.566;2023-09-18T06:17:59;8.68;;;4.43;;
63201;SDS011;49296;48.188;11.566;2023-09-18T06:20:25;8.30;;;4.47;;
63201;SDS011;49296;48.188;11.566;2023-09-18T06:22:52;7.45;;;4.53;;
63201;SDS011;49296;48.188;11.566;2023-09-18T06:25:19;11.73;;;5.60;;
63201;SDS011;49296;48.188;11.566;2023-09-18T06:27:46;10.45;;;5.00;;
63201;SDS011;49296;48.188;11.566;2023-09-18T06:30:12;12.00;;;6.43;;
63201;SDS011;49296;48.188;11.566;2023-09-18T06:32:41;11.77;;;6.15;;
63201;SDS011;49296;48.188;11.566;2023-09-18T06:35:08;13.57;;;6.38;;
63201;SDS011;49296;48.188;11.566;2023-09-18T06:37:34;9.23;;;5.20;;
63201;SDS011;49296;48.188;11.566;2023-09-18T06:40:01;9.55;;;5.35;;
63201;SDS011;49296;48.188;11.566;2023-09-18T06:42:30;9.00;;;5.68;;
63201;SDS011;49296;48.188;11.566;2023-09-18T06:44:56;8.63;;;4.78;;
63201;SDS011;49296;48.188;11.566;2023-09-18T06:47:23;9.95;;;6.00;;
63201;SDS011;49296;48.188;11.566;2023-09-18T06:49:51;8.95;;;4.90;;
63201;SDS011;49296;48.188;11.566;2023-09-18T06:52:18;8.65;;;5.40;;
63201;SDS011;49296;48.188;11.566;2023-09-18T06:54:44;9.98;;;5.45;;
63201;SDS011;49296;48.188;11.566;2023-09-18T06:57:11;10.70;;;5.25;;
63201;SDS011;49296;48.188;11.566;2023-09-18T06:59:38;12.57;;;6.03;;
63201;SDS011;49296;48.188;11.566;2023-09-18T07:02:04;9.80;;;6.13;;
63201;SDS011;49296;48.188;11.566;2023-09-18T07:04:31;8.23;;;5.05;;
63201;SDS011;49296;48.188;11.566;2023-09-18T07:06:59;8.48;;;5.05;;
63201;SDS011;49296;48.188;11.566;2023-09-18T07:09:26;7.80;;;4.97;;
63201;SDS011;49296;48.188;11.566;2023-09-18T07:11:52;9.82;;;5.25;;
63201;SDS011;49296;48.188;11.566;2023-09-18T07:14:19;8.50;;;5.50;;
63201;SDS011;49296;48.188;11.566;2023-09-18T07:16:46;10.75;;;5.93;;
63201;SDS011;49296;48.188;11.566;2023-09-18T07:19:13;8.57;;;5.28;;
63201;SDS011;49296;48.188;11.566;2023-09-18T07:21:42;11.93;;;6.35;;
63201;SDS011;49296;48.188;11.566;2023-09-18T07:24:10;8.48;;;5.80;;
63201;SDS011;49296;48.188;11.566;2023-09-18T07:26:43;9.65;;;4.85;;
63201;SDS011;49296;48.188;11.566;2023-09-18T07:29:10;10.80;;;5.13;;
63201;SDS011;49296;48.188;11.566;2023-09-18T07:31:38;8.82;;;5.20;;
63201;SDS011;49296;48.188;11.566;2023-09-18T07:34:05;6.68;;;4.82;;
63201;SDS011;49296;48.188;11.566;2023-09-18T07:36:32;8.27;;;5.38;;
63201;SDS011;49296;48.188;11.566;2023-09-18T07:38:58;7.57;;;4.90;;
63201;SDS011;49296;48.188;11.566;2023-09-18T07:41:26;7.60;;;5.30;;
63201;SDS011;49296;48.188;11.566;2023-09-18T07:43:53;8.77;;;5.60;;
63201;SDS011;49296;48.188;11.566;2023-09-18T07:46:19;8.65;;;5.35;;
63201;SDS011;49296;48.188;11.566;2023-09-18T07:48:46;9.75;;;5.32;;
63201;SDS011;49296;48.188;11.566;2023-09-18T07:51:13;7.68;;;5.70;;
63201;SDS011;49296;48.188;11.566;2023-09-18T07:53:41;10.95;;;5.88;;
63201;SDS011;49296;48.188;11.566;2023-09-18T07:56:08;6.68;;;5.22;;
63201;SDS011;49296;48.188;11.566;2023-09-18T07:58:37;8.50;;;5.70;;
63201;SDS011;49296;48.188;11.566;2023-09-18T08:01:04;7.57;;;5.07;;
63201;SDS011;49296;48.188;11.566;2023-09-18T08:03:31;8.05;;;5.53;;
63201;SDS011;49296;48.188;11.566;2023-09-18T08:05:58;7.53;;;5.45;;
63201;SDS011;49296;48.188;11.566;2023-09-18T08:08:25;12.98;;;7.45;;
63201;SDS011;49296;48.188;11.566;2023-09-18T08:10:51;10.15;;;5.25;;
63201;SDS011;49296;48.188;11.566;2023-09-18T08:13:19;8.13;;;5.45;;
63201;SDS011;49296;48.188;11.566;2023-09-18T08:15:48;7.30;;;4.93;;
63201;SDS011;49296;48.188;11.566;2023-09-18T08:18:16;8.90;;;5.85;;
63201;SDS011;49296;48.188;11.566;2023-09-18T08:20:42;8.68;;;4.68;;
63201;SDS011;49296;48.188;11.566;2023-09-18T08:23:09;11.10;;;6.57;;
63201;SDS011;49296;48.188;11.566;2023-09-18T08:25:36;11.55;;;6.78;;
63201;SDS011;49296;48.188;11.566;2023-09-18T08:28:05;9.63;;;5.07;;
63201;SDS011;49296;48.188;11.566;2023-09-18T08:30:31;7.05;;;5.00;;
63201;SDS011;49296;48.188;11.566;2023-09-18T08:32:59;8.68;;;5.53;;
63201;SDS011;49296;48.188;11.566;2023-09-18T08:35:26;7.82;;;5.07;;
63201;SDS011;49296;48.188;11.566;2023-09-18T08:37:54;8.70;;;5.35;;
63201;SDS011;49296;48.188;11.566;2023-09-18T08:40:22;7.80;;;4.65;;
63201;SDS011;49296;48.188;11.566;2023-09-18T08:42:51;9.95;;;5.78;;
63201;SDS011;49296;48.188;11.566;2023-09-18T08:45:22;7.70;;;5.22;;
63201;SDS011;49296;48.188;11.566;2023-09-18T08:47:51;15.30;;;7.00;;
63201;SDS011;49296;48.188;11.566;2023-09-18T08:50:21;10.23;;;5.88;;
63201;SDS011;49296;48.188;11.566;2023-09-18T08:52:50;8.75;;;6.40;;
63201;SDS011;49296;48.188;11.566;2023-09-18T08:55:17;12.50;;;6.10;;
63201;SDS011;49296;48.188;11.566;2023-09-18T08:57:44;9.23;;;5.22;;
63201;SDS011;49296;48.188;11.566;2023-09-18T09:00:12;25.67;;;10.90;;
63201;SDS011;49296;48.188;11.566;2023-09-18T09:02:41;9.63;;;6.40;;
63201;SDS011;49296;48.188;11.566;2023-09-18T09:05:08;8.52;;;6.13;;
63201;SDS011;49296;48.188;11.566;2023-09-18T09:07:37;9.85;;;5.05;;
63201;SDS011;49296;48.188;11.566;2023-09-18T09:10:03;7.97;;;5.35;;
63201;SDS011;49296;48.188;11.566;2023-09-18T09:15:20;12.10;;;6.05;;
63201;SDS011;49296;48.188;11.566;2023-09-18T09:17:47;12.13;;;5.97;;
63201;SDS011;49296;48.188;11.566;2023-09-18T09:20:15;21.20;;;9.18;;
63201;SDS011;49296;48.188;11.566;2023-09-18T09:22:45;11.65;;;6.65;;
63201;SDS011;49296;48.188;11.566;2023-09-18T09:25:25;11.57;;;5.65;;
63201;SDS011;49296;48.188;11.566;2023-09-18T09:27:52;8.60;;;5.75;;
63201;SDS011;49296;48.188;11.566;2023-09-18T09:30:20;7.97;;;4.80;;
63201;SDS011;49296;48.188;11.566;2023-09-18T09:32:48;8.20;;;5.05;;
63201;SDS011;49296;48.188;11.566;2023-09-18T09:35:20;8.38;;;5.03;;
63201;SDS011;49296;48.188;11.566;2023-09-18T09:37:49;8.52;;;5.60;;
63201;SDS011;49296;48.188;11.566;2023-09-18T09:40:19;8.70;;;5.30;;
63201;SDS011;49296;48.188;11.566;2023-09-18T09:42:46;9.18;;;5.28;;
63201;SDS011;49296;48.188;11.566;2023-09-18T09:45:13;9.07;;;5.10;;
63201;SDS011;49296;48.188;11.566;2023-09-18T09:47:41;9.88;;;5.10;;
63201;SDS011;49296;48.188;11.566;2023-09-18T09:50:09;9.35;;;5.28;;
63201;SDS011;49296;48.188;11.566;2023-09-18T09:52:40;7.72;;;4.45;;
63201;SDS011;49296;48.188;11.566;2023-09-18T09:55:20;9.27;;;5.43;;
63201;SDS011;49296;48.188;11.566;2023-09-18T09:57:49;9.90;;;4.38;;
63201;SDS011;49296;48.188;11.566;2023-09-18T10:00:17;13.98;;;4.55;;
63201;SDS011;49296;48.188;11.566;2023-09-18T10:02:59;7.93;;;4.95;;
63201;SDS011;49296;48.188;11.566;2023-09-18T10:05:28;9.18;;;6.03;;
63201;SDS011;49296;48.188;11.566;2023-09-18T10:07:57;8.35;;;4.43;;
63201;SDS011;49296;48.188;11.566;2023-09-18T10:10:29;8.15;;;4.72;;
63201;SDS011;49296;48.188;11.566;2023-09-18T10:13:00;7.45;;;4.53;;
63201;SDS011;49296;48.188;11.566;2023-09-18T10:15:31;9.55;;;4.38;;
63201;SDS011;49296;48.188;11.566;2023-09-18T10:18:03;9.18;;;4.78;;
63201;SDS011;49296;48.188;11.566;2023-09-18T10:20:33;9.60;;;5.18;;
63201;SDS011;49296;48.188;11.566;2023-09-18T10:23:09;9.20;;;4.38;;
63201;SDS011;49296;48.188;11.566;2023-09-18T10:25:47;6.85;;;4.10;;
63201;SDS011;49296;48.188;11.566;2023-09-18T10:28:16;8.32;;;4.05;;
63201;SDS011;49296;48.188;11.566;2023-09-18T10:30:43;7.47;;;3.97;;
63201;SDS011;49296;48.188;11.566;2023-09-18T10:33:10;10.32;;;4.40;;
63201;SDS011;49296;48.188;11.566;2023-09-18T10:35:38;10.13;;;4.65;;
63201;SDS011;49296;48.188;11.566;2023-09-18T10:38:05;8.27;;;3.60;;
63201;SDS011;49296;48.188;11.566;2023-09-18T10:40:33;8.40;;;3.70;;
63201;SDS011;49296;48.188;11.566;2023-09-18T10:43:03;8.23;;;4.03;;
63201;SDS011;49296;48.188;11.566;2023-09-18T10:45:34;17.60;;;6.50;;
63201;SDS011;49296;48.188;11.566;2023-09-18T10:48:02;12.13;;;5.25;;
63201;SDS011;49296;48.188;11.566;2023-09-18T10:50:34;8.95;;;3.40;;
63201;SDS011;49296;48.188;11.566;2023-09-18T10:53:02;14.98;;;5.35;;
63201;SDS011;49296;48.188;11.566;2023-09-18T10:55:29;11.52;;;3.50;;
63201;SDS011;49296;48.188;11.566;2023-09-18T10:57:56;9.05;;;3.40;;
63201;SDS011;49296;48.188;11.566;2023-09-18T11:00:25;9.45;;;3.70;;
63201;SDS011;49296;48.188;11.566;2023-09-18T11:02:53;10.90;;;3.70;;
63201;SDS011;49296;48.188;11.566;2023-09-18T11:05:30;9.50;;;4.07;;
63201;SDS011;49296;48.188;11.566;2023-09-18T11:10:59;12.63;;;3.92;;
63201;SDS011;49296;48.188;11.566;2023-09-18T11:13:30;12.55;;;3.30;;
63201;SDS011;49296;48.188;11.566;2023-09-18T11:16:01;11.43;;;3.28;;
63201;SDS011;49296;48.188;11.566;2023-09-18T11:18:39;13.57;;;4.00;;
63201;SDS011;49296;48.188;11.566;2023-09-18T11:21:09;11.98;;;3.58;;
63201;SDS011;49296;48.188;11.566;2023-09-18T11:23:36;11.93;;;3.97;;
63201;SDS011;49296;48.188;11.566;2023-09-18T11:26:07;10.23;;;3.40;;
63201;SDS011;49296;48.188;11.566;2023-09-18T11:28:35;10.80;;;4.10;;
63201;SDS011;49296;48.188;11.566;2023-09-18T11:31:04;11.52;;;3.50;;
63201;SDS011;49296;48.188;11.566;2023-09-18T11:33:34;11.63;;;3.40;;
63201;SDS011;49296;48.188;11.566;2023-09-18T11:36:03;7.13;;;3.17;;
63201;SDS011;49296;48.188;11.566;2023-09-18T11:38:33;9.85;;;2.70;;
63201;SDS011;49296;48.188;11.566;2023-09-18T11:41:22;9.07;;;2.47;;
63201;SDS011;49296;48.188;11.566;2023-09-18T11:43:51;7.93;;;2.55;;
63201;SDS011;49296;48.188;11.566;2023-09-18T11:46:20;8.02;;;2.28;;
63201;SDS011;49296;48.188;11.566;2023-09-18T11:48:47;7.93;;;2.50;;
63201;SDS011;49296;48.188;11.566;2023-09-18T11:51:20;9.88;;;2.78;;
63201;SDS011;49296;48.188;11.566;2023-09-18T11:53:49;8.20;;;2.15;;
63201;SDS011;49296;48.188;11.566;2023-09-18T11:56:18;6.30;;;1.98;;
63201;SDS011;49296;48.188;11.566;2023-09-18T11:58:46;5.55;;;1.90;;
63201;SDS011;49296;48.188;11.566;2023-09-18T12:01:13;7.95;;;1.95;;
63201;SDS011;49296;48.188;11.566;2023-09-18T12:03:42;7.50;;;2.45;;
63201;SDS011;49296;48.188;11.566;2023-09-18T12:06:08;5.15;;;1.80;;
63201;SDS011;49296;48.188;11.566;2023-09-18T12:08:38;5.00;;;2.00;;
63201;SDS011;49296;48.188;11.566;2023-09-18T12:11:05;3.97;;;1.75;;
63201;SDS011;49296;48.188;11.566;2023-09-18T12:13:32;5.32;;;1.85;;
63201;SDS011;49296;48.188;11.566;2023-09-18T12:16:00;4.63;;;1.42;;
63201;SDS011;49296;48.188;11.566;2023-09-18T12:20:59;5.53;;;1.60;;
63201;SDS011;49296;48.188;11.566;2023-09-18T12:23:25;4.43;;;1.50;;
63201;SDS011;49296;48.188;11.566;2023-09-18T12:25:57;4.18;;;1.40;;
63201;SDS011;49296;48.188;11.566;2023-09-18T12:28:25;3.85;;;1.85;;
63201;SDS011;49296;48.188;11.566;2023-09-18T12:30:53;5.15;;;1.50;;
63201;SDS011;49296;48.188;11.566;2023-09-18T12:33:21;5.80;;;1.60;;
63201;SDS011;49296;48.188;11.566;2023-09-18T12:35:48;5.20;;;1.65;;
63201;SDS011;49296;48.188;11.566;2023-09-18T12:38:18;5.68;;;2.05;;
63201;SDS011;49296;48.188;11.566;2023-09-18T12:40:49;3.80;;;1.80;;
63201;SDS011;49296;48.188;11.566;2023-09-18T12:43:16;4.80;;;1.60;;
63201;SDS011;49296;48.188;11.566;2023-09-18T12:45:44;5.32;;;2.20;;
63201;SDS011;49296;48.188;11.566;2023-09-18T12:48:12;5.05;;;1.52;;
63201;SDS011;49296;48.188;11.566;2023-09-18T12:50:40;4.35;;;1.80;;
63201;SDS011;49296;48.188;11.566;2023-09-18T12:53:07;4.45;;;1.60;;
63201;SDS011;49296;48.188;11.566;2023-09-18T12:55:36;6.18;;;2.67;;
63201;SDS011;49296;48.188;11.566;2023-09-18T12:58:04;5.93;;;1.70;;
63201;SDS011;49296;48.188;11.566;2023-09-18T13:00:33;4.80;;;1.70;;
63201;SDS011;49296;48.188;11.566;2023-09-18T13:03:00;6.63;;;1.95;;
63201;SDS011;49296;48.188;11.566;2023-09-18T13:05:29;5.03;;;1.45;;
63201;SDS011;49296;48.188;11.566;2023-09-18T13:08:01;3.70;;;1.40;;
63201;SDS011;49296;48.188;11.566;2023-09-18T13:10:29;5.57;;;1.90;;
63201;SDS011;49296;48.188;11.566;2023-09-18T13:12:57;6.38;;;1.40;;
63201;SDS011;49296;48.188;11.566;2023-09-18T13:15:25;4.35;;;1.67;;
63201;SDS011;49296;48.188;11.566;2023-09-18T13:17:53;3.55;;;1.25;;
63201;SDS011;49296;48.188;11.566;2023-09-18T13:20:20;6.53;;;1.73;;
63201;SDS011;49296;48.188;11.566;2023-09-18T13:22:50;5.10;;;1.40;;
63201;SDS011;49296;48.188;11.566;2023-09-18T13:25:21;4.78;;;1.40;;
63201;SDS011;49296;48.188;11.566;2023-09-18T13:27:48;6.50;;;1.50;;
63201;SDS011;49296;48.188;11.566;2023-09-18T13:30:17;5.60;;;1.95;;
63201;SDS011;49296;48.188;11.566;2023-09-18T13:32:46;5.07;;;1.53;;
63201;SDS011;49296;48.188;11.566;2023-09-18T13:35:14;4.18;;;1.83;;
63201;SDS011;49296;48.188;11.566;2023-09-18T13:37:41;3.60;;;1.50;;
63201;SDS011;49296;48.188;11.566;2023-09-18T13:40:08;7.30;;;1.60;;
63201;SDS011;49296;48.188;11.566;2023-09-18T13:42:35;3.28;;;1.48;;
63201;SDS011;49296;48.188;11.566;2023-09-18T13:45:02;5.32;;;1.40;;
63201;SDS011;49296;48.188;11.566;2023-09-18T13:47:32;4.28;;;1.60;;
63201;SDS011;49296;48.188;11.566;2023-09-18T13:49:59;4.32;;;1.60;;
63201;SDS011;49296;48.188;11.566;2023-09-18T13:52:26;3.63;;;1.42;;
63201;SDS011;49296;48.188;11.566;2023-09-18T13:54:53;3.53;;;1.63;;
63201;SDS011;49296;48.188;11.566;2023-09-18T13:57:20;4.70;;;2.03;;
63201;SDS011;49296;48.188;11.566;2023-09-18T13:59:47;3.08;;;1.67;;
63201;SDS011;49296;48.188;11.566;2023-09-18T14:02:16;4.38;;;1.38;;
63201;SDS011;49296;48.188;11.566;2023-09-18T14:04:44;6.30;;;1.65;;
63201;SDS011;49296;48.188;11.566;2023-09-18T14:07:11;3.42;;;1.50;;
63201;SDS011;49296;48.188;11.566;2023-09-18T14:09:38;4.07;;;1.67;;
63201;SDS011;49296;48.188;11.566;2023-09-18T14:12:05;3.95;;;1.50;;
63201;SDS011;49296;48.188;11.566;2023-09-18T14:14:33;2.33;;;1.30;;
63201;SDS011;49296;48.188;11.566;2023-09-18T14:17:00;3.35;;;1.30;;
63201;SDS011;49296;48.188;11.566;2023-09-18T14:19:27;4.10;;;1.45;;
63201;SDS011;49296;48.188;11.566;2023-09-18T14:21:55;3.35;;;1.50;;
63201;SDS011;49296;48.188;11.566;2023-09-18T14:24:21;5.72;;;1.65;;
63201;SDS011;49296;48.188;11.566;2023-09-18T14:26:50;5.22;;;2.58;;
63201;SDS011;49296;48.188;11.566;2023-09-18T14:29:17;6.35;;;1.98;;
63201;SDS011;49296;48.188;11.566;2023-09-18T14:31:44;3.90;;;1.63;;
63201;SDS011;49296;48.188;11.566;2023-09-18T14:34:11;3.58;;;1.20;;
63201;SDS011;49296;48.188;11.566;2023-09-18T14:36:37;3.70;;;1.67;;
63201;SDS011;49296;48.188;11.566;2023-09-18T14:39:06;4.90;;;1.27;;
63201;SDS011;49296;48.188;11.566;2023-09-18T14:41:33;4.28;;;1.42;;
63201;SDS011;49296;48.188;11.566;2023-09-18T14:44:00;3.58;;;1.30;;
63201;SDS011;49296;48.188;11.566;2023-09-18T14:46:28;3.13;;;1.40;;